Time;durP1;ratioP1;P1;durP2;ratioP2;P2;SDS_P1;SDS_P2;PMS_P1;PMS_P2;Temp;Humidity;BMP_temperature;BMP_pressure;BME280_temperature;BME280_humidity;BME280_pressure;Samples;Min_cycle;Max_cycle;Signal;HPM_P1;HPM_P2
2023/04/07 00:02:03;;;;;;;21.73;12.68;;;;;;;;;;8323155;28;20486;-82
2023/04/07 00:06:06;;;;;;;23.92;14.13;;;;;;;;;;8327117;28;20048;-84
2023/04/07 00:10:12;;;;;;;22.30;12.68;;;;;;;;;;8336363;28;20481;-82
2023/04/07 00:14:15;;;;;;;22.58;13.38;;;;;;;;;;8359903;28;20045;-82
2023/04/07 00:18:17;;;;;;;26.23;14.52;;;;;;;;;;8339068;28;20445;-81
2023/04/07 00:22:21;;;;;;;19.85;12.88;;;;;;;;;;8361567;28;20048;-82
2023/04/07 00:26:27;;;;;;;25.88;14.43;;;;;;;;;;8350595;28;20060;-82
2023/04/07 00:30:30;;;;;;;23.35;13.23;;;;;;;;;;8361769;28;20049;-84
2023/04/07 00:34:33;;;;;;;24.35;14.55;;;;;;;;;;8336940;28;20072;-84
2023/04/07 00:38:36;;;;;;;28.27;15.13;;;;;;;;;;8358151;28;20045;-82
2023/04/07 00:42:40;;;;;;;28.88;15.50;;;;;;;;;;8361852;28;20041;-82
2023/04/07 00:46:43;;;;;;;27.35;15.63;;;;;;;;;;8362068;28;20531;-83
2023/04/07 00:50:46;;;;;;;29.52;15.63;;;;;;;;;;8361605;28;20052;-82
2023/04/07 00:54:49;;;;;;;26.05;14.10;;;;;;;;;;8348065;28;20060;-82
2023/04/07 00:58:53;;;;;;;23.90;13.98;;;;;;;;;;8361459;28;20052;-84
2023/04/07 01:03:01;;;;;;;28.85;13.27;;;;;;;;;;8342235;28;20158;-84
2023/04/07 01:07:09;;;;;;;32.75;15.13;;;;;;;;;;8353819;28;20041;-81
2023/04/07 01:11:19;;;;;;;23.92;12.23;;;;;;;;;;8361149;28;20045;-81
2023/04/07 01:15:24;;;;;;;28.95;13.73;;;;;;;;;;8361029;28;20045;-84
2023/04/07 01:19:36;;;;;;;31.67;14.85;;;;;;;;;;8352408;28;20053;-84
2023/04/07 01:24:01;;;;;;;32.13;15.30;;;;;;;;;;8348798;28;20052;-85
2023/04/07 01:28:38;;;;;;;39.00;15.23;;;;;;;;;;8360856;28;20048;-82
2023/04/07 01:32:45;;;;;;;27.13;14.57;;;;;;;;;;8360867;28;20443;-81
2023/04/07 01:36:51;;;;;;;35.42;15.75;;;;;;;;;;8338150;28;20045;-83
2023/04/07 01:40:55;;;;;;;28.42;13.68;;;;;;;;;;8360570;28;20045;-82
2023/04/07 01:44:59;;;;;;;34.33;15.13;;;;;;;;;;8356915;28;20045;-83
2023/04/07 01:49:04;;;;;;;22.33;13.02;;;;;;;;;;8355194;28;20057;-83
2023/04/07 01:53:07;;;;;;;28.90;14.20;;;;;;;;;;8362739;28;20512;-82
2023/04/07 01:57:10;;;;;;;34.15;16.02;;;;;;;;;;8361210;28;20049;-81
2023/04/07 02:01:14;;;;;;;33.42;16.10;;;;;;;;;;8361568;28;20045;-82
2023/04/07 02:05:21;;;;;;;21.17;13.10;;;;;;;;;;8361663;28;20052;-83
2023/04/07 02:09:30;;;;;;;34.28;16.75;;;;;;;;;;8336543;28;20052;-80
2023/04/07 02:13:35;;;;;;;29.95;16.10;;;;;;;;;;8361198;28;20044;-83
2023/04/07 02:17:42;;;;;;;30.40;14.82;;;;;;;;;;8367892;28;20072;-82
2023/04/07 02:21:48;;;;;;;27.02;15.50;;;;;;;;;;8367990;28;20478;-81
2023/04/07 02:25:51;;;;;;;24.20;14.95;;;;;;;;;;8367560;28;20045;-82
2023/04/07 02:29:54;;;;;;;27.30;13.90;;;;;;;;;;8367172;28;20049;-82
2023/04/07 02:33:57;;;;;;;29.15;15.20;;;;;;;;;;8367083;28;20481;-81
2023/04/07 02:38:01;;;;;;;34.55;16.90;;;;;;;;;;8366989;28;20159;-82
2023/04/07 02:42:04;;;;;;;32.10;17.17;;;;;;;;;;8366906;28;20124;-82
2023/04/07 02:46:07;;;;;;;30.02;15.85;;;;;;;;;;8366773;28;20056;-81
2023/04/07 02:50:10;;;;;;;31.13;16.77;;;;;;;;;;8340476;28;20047;-83
2023/04/07 02:54:15;;;;;;;30.60;16.48;;;;;;;;;;8366656;28;20053;-82
2023/04/07 02:58:17;;;;;;;31.75;17.23;;;;;;;;;;8366831;28;20056;-82
2023/04/07 03:02:20;;;;;;;28.45;16.38;;;;;;;;;;8366624;28;20049;-82
2023/04/07 03:06:23;;;;;;;27.17;14.98;;;;;;;;;;8366583;28;20131;-84
2023/04/07 03:10:27;;;;;;;33.35;16.42;;;;;;;;;;8365925;28;20059;-82
2023/04/07 03:14:30;;;;;;;27.65;14.00;;;;;;;;;;8366107;28;20119;-83
2023/04/07 03:18:34;;;;;;;21.83;12.25;;;;;;;;;;8352291;28;20056;-83
2023/04/07 03:22:37;;;;;;;25.05;13.73;;;;;;;;;;8365704;28;20046;-80
2023/04/07 03:26:41;;;;;;;21.15;12.25;;;;;;;;;;8364623;28;20086;-82
2023/04/07 03:30:44;;;;;;;28.38;15.63;;;;;;;;;;8365448;28;20117;-81
2023/04/07 03:34:47;;;;;;;28.45;14.80;;;;;;;;;;8365508;28;20114;-81
2023/04/07 03:38:50;;;;;;;27.70;15.32;;;;;;;;;;8365605;28;20542;-84
2023/04/07 03:42:54;;;;;;;34.53;17.55;;;;;;;;;;8364982;28;20101;-84
2023/04/07 03:47:00;;;;;;;31.67;16.92;;;;;;;;;;8365282;28;20048;-81
2023/04/07 03:51:07;;;;;;;31.67;16.85;;;;;;;;;;8365021;28;20045;-81
2023/04/07 03:55:11;;;;;;;32.63;18.08;;;;;;;;;;8364729;28;20125;-82
2023/04/07 03:59:15;;;;;;;34.03;17.50;;;;;;;;;;8364866;28;20051;-81
2023/04/07 04:03:18;;;;;;;32.35;16.63;;;;;;;;;;8365098;28;20416;-83
2023/04/07 04:07:21;;;;;;;45.72;16.67;;;;;;;;;;8364418;28;20052;-82
2023/04/07 04:11:24;;;;;;;36.35;16.35;;;;;;;;;;8364499;28;20568;-83
2023/04/07 04:15:28;;;;;;;35.35;17.83;;;;;;;;;;8364121;28;20417;-82
2023/04/07 04:19:31;;;;;;;37.92;18.55;;;;;;;;;;8363999;28;20106;-82
2023/04/07 04:23:33;;;;;;;41.38;19.75;;;;;;;;;;8363097;28;20504;-81
2023/04/07 04:27:36;;;;;;;37.28;16.75;;;;;;;;;;8363536;28;20041;-82
2023/04/07 04:31:40;;;;;;;38.60;15.80;;;;;;;;;;8363596;28;20056;-83
2023/04/07 04:35:45;;;;;;;40.83;16.30;;;;;;;;;;8363850;28;20400;-82
2023/04/07 04:39:48;;;;;;;43.05;16.42;;;;;;;;;;8362942;28;20045;-81
2023/04/07 04:43:51;;;;;;;43.45;17.17;;;;;;;;;;8363613;28;20037;-84
2023/04/07 04:47:55;;;;;;;51.03;18.45;;;;;;;;;;8363515;28;20385;-83
2023/04/07 04:51:58;;;;;;;50.13;15.73;;;;;;;;;;8363334;28;20052;-83
2023/04/07 04:56:01;;;;;;;39.45;14.93;;;;;;;;;;8362603;28;20045;-82
2023/04/07 05:00:04;;;;;;;34.17;16.05;;;;;;;;;;8361539;28;20048;-82
2023/04/07 05:04:09;;;;;;;45.63;16.38;;;;;;;;;;8341440;28;20391;-82
2023/04/07 05:08:11;;;;;;;53.50;16.50;;;;;;;;;;8349996;28;20045;-84
2023/04/07 05:12:15;;;;;;;44.00;13.85;;;;;;;;;;8354743;28;20115;-81
2023/04/07 05:16:18;;;;;;;37.88;14.70;;;;;;;;;;8346480;28;20128;-82
2023/04/07 05:20:23;;;;;;;70.35;16.08;;;;;;;;;;8348438;28;20049;-83
2023/04/07 05:24:27;;;;;;;35.38;14.70;;;;;;;;;;8343594;28;20076;-82
2023/04/07 05:28:30;;;;;;;56.40;17.30;;;;;;;;;;8361811;28;20047;-83
2023/04/07 05:32:33;;;;;;;82.22;18.30;;;;;;;;;;8342066;28;20402;-81
2023/04/07 05:36:37;;;;;;;53.95;17.27;;;;;;;;;;8339037;28;20104;-82
2023/04/07 05:40:40;;;;;;;49.15;14.98;;;;;;;;;;8354902;28;20042;-82
2023/04/07 05:44:43;;;;;;;50.95;17.42;;;;;;;;;;8345565;28;20056;-83
2023/04/07 05:48:46;;;;;;;66.13;16.23;;;;;;;;;;8355645;28;20045;-82
2023/04/07 05:52:50;;;;;;;57.63;16.45;;;;;;;;;;8346347;28;20116;-83
2023/04/07 05:56:53;;;;;;;51.30;16.05;;;;;;;;;;8355713;28;20045;-81
2023/04/07 06:00:56;;;;;;;73.60;17.35;;;;;;;;;;8368799;28;20135;-82
2023/04/07 06:04:59;;;;;;;54.63;16.27;;;;;;;;;;8368172;28;20413;-81
2023/04/07 06:09:03;;;;;;;54.03;17.40;;;;;;;;;;8363614;28;20124;-81
2023/04/07 06:13:06;;;;;;;78.75;17.13;;;;;;;;;;8349253;28;20132;-82
2023/04/07 06:17:09;;;;;;;50.78;15.63;;;;;;;;;;8360990;28;20049;-82
2023/04/07 06:21:12;;;;;;;58.00;18.75;;;;;;;;;;8328444;28;20049;-83
2023/04/07 06:25:16;;;;;;;87.68;30.33;;;;;;;;;;8366043;28;20048;-81
2023/04/07 06:29:19;;;;;;;56.72;25.95;;;;;;;;;;8367315;28;20052;-82
2023/04/07 06:33:24;;;;;;;47.70;18.10;;;;;;;;;;8345738;28;20288;-87
2023/04/07 06:37:27;;;;;;;36.78;15.40;;;;;;;;;;8323590;28;20791;-83
2023/04/07 06:41:32;;;;;;;74.32;17.88;;;;;;;;;;8310943;28;20472;-83
2023/04/07 06:45:38;;;;;;;67.70;18.55;;;;;;;;;;8308994;28;20101;-82
2023/04/07 06:49:44;;;;;;;43.15;17.45;;;;;;;;;;8315716;28;20512;-84
2023/04/07 06:53:47;;;;;;;51.63;16.67;;;;;;;;;;8333970;28;20048;-84
2023/04/07 06:57:51;;;;;;;50.97;16.60;;;;;;;;;;8309920;28;20152;-84
2023/04/07 07:01:54;;;;;;;34.63;15.80;;;;;;;;;;8313671;28;20042;-82
2023/04/07 07:05:57;;;;;;;45.53;16.98;;;;;;;;;;8313119;28;20132;-85
2023/04/07 07:10:00;;;;;;;35.13;16.08;;;;;;;;;;8333067;28;20554;-83
2023/04/07 07:14:05;;;;;;;34.83;14.98;;;;;;;;;;8328416;28;20081;-82
2023/04/07 07:18:09;;;;;;;38.47;15.93;;;;;;;;;;8328385;28;20501;-83
2023/04/07 07:22:12;;;;;;;40.42;17.85;;;;;;;;;;8323320;28;20057;-82
2023/04/07 07:26:15;;;;;;;38.33;16.85;;;;;;;;;;8317518;28;20049;-82
2023/04/07 07:30:21;;;;;;;46.10;18.48;;;;;;;;;;8302504;28;20056;-82
2023/04/07 07:34:24;;;;;;;44.30;17.38;;;;;;;;;;8317793;28;20048;-82
2023/04/07 07:38:27;;;;;;;39.50;18.00;;;;;;;;;;8330693;28;20124;-85
2023/04/07 07:42:30;;;;;;;37.13;17.70;;;;;;;;;;8337069;28;20527;-83
2023/04/07 07:46:34;;;;;;;29.88;16.30;;;;;;;;;;8360552;28;20067;-83
2023/04/07 07:50:37;;;;;;;36.45;17.65;;;;;;;;;;8363337;28;20484;-80
2023/04/07 07:54:40;;;;;;;35.42;17.83;;;;;;;;;;8364951;28;20044;-83
2023/04/07 07:58:43;;;;;;;33.35;18.23;;;;;;;;;;8364633;28;20068;-81
2023/04/07 08:02:47;;;;;;;27.90;16.35;;;;;;;;;;8364399;28;20037;-81
2023/04/07 08:06:51;;;;;;;37.80;18.90;;;;;;;;;;8364249;28;20064;-83
2023/04/07 08:10:53;;;;;;;37.00;19.58;;;;;;;;;;8363938;28;20055;-81
2023/04/07 08:14:56;;;;;;;32.33;17.35;;;;;;;;;;8363858;28;20055;-83
2023/04/07 08:19:01;;;;;;;26.00;15.07;;;;;;;;;;8363232;28;20068;-81
2023/04/07 08:23:03;;;;;;;37.42;17.63;;;;;;;;;;8364253;28;20087;-82
2023/04/07 08:27:06;;;;;;;32.53;17.00;;;;;;;;;;8350490;28;20047;-81
2023/04/07 08:31:09;;;;;;;36.13;19.55;;;;;;;;;;8364175;28;20500;-81
2023/04/07 08:35:14;;;;;;;25.35;14.23;;;;;;;;;;8363687;28;20051;-82
2023/04/07 08:39:17;;;;;;;25.63;13.63;;;;;;;;;;8363603;28;20041;-82
2023/04/07 08:43:21;;;;;;;23.95;13.52;;;;;;;;;;8363317;28;20041;-81
2023/04/07 08:47:26;;;;;;;27.10;14.30;;;;;;;;;;8363350;28;20118;-81
2023/04/07 08:51:31;;;;;;;25.05;13.98;;;;;;;;;;8362340;28;20056;-85
2023/04/07 08:55:36;;;;;;;22.60;13.05;;;;;;;;;;8323460;28;20065;-81
2023/04/07 08:59:43;;;;;;;24.13;14.13;;;;;;;;;;8311779;28;20399;-82
2023/04/07 09:03:48;;;;;;;22.30;13.63;;;;;;;;;;8325774;28;20136;-80
2023/04/07 09:07:52;;;;;;;25.27;15.18;;;;;;;;;;8317777;28;20045;-81
2023/04/07 09:11:55;;;;;;;26.67;16.05;;;;;;;;;;8330461;28;20040;-87
2023/04/07 09:16:01;;;;;;;28.08;15.60;;;;;;;;;;8316820;28;20065;-84
2023/04/07 09:20:05;;;;;;;22.52;12.95;;;;;;;;;;8322706;28;20535;-81
2023/04/07 09:24:21;;;;;;;23.08;13.55;;;;;;;;;;8305014;28;20045;-83
2023/04/07 09:28:24;;;;;;;21.95;13.77;;;;;;;;;;8321354;28;20120;-82
2023/04/07 09:32:37;;;;;;;20.75;12.63;;;;;;;;;;8312122;28;20062;-83
2023/04/07 09:36:42;;;;;;;26.13;14.63;;;;;;;;;;8319565;28;20042;-86
2023/04/07 09:40:48;;;;;;;24.65;13.70;;;;;;;;;;8311689;28;20490;-82
2023/04/07 09:44:51;;;;;;;26.95;15.45;;;;;;;;;;8323039;28;20931;-83
2023/04/07 09:49:04;;;;;;;50.88;25.58;;;;;;;;;;8328466;28;20049;-81
2023/04/07 09:53:07;;;;;;;37.65;20.63;;;;;;;;;;8319152;28;20057;-81
2023/04/07 09:57:12;;;;;;;39.83;19.70;;;;;;;;;;8322700;28;20077;-81
2023/04/07 10:01:16;;;;;;;36.60;19.55;;;;;;;;;;8313631;28;20589;-86
2023/04/07 10:05:21;;;;;;;33.90;19.13;;;;;;;;;;8312674;28;20038;-81
2023/04/07 10:09:24;;;;;;;28.80;16.52;;;;;;;;;;8312324;28;20256;-82
2023/04/07 10:13:29;;;;;;;36.60;21.75;;;;;;;;;;8322213;28;20120;-81
2023/04/07 10:17:36;;;;;;;30.98;18.02;;;;;;;;;;8326331;28;20053;-83
2023/04/07 10:21:41;;;;;;;31.10;17.23;;;;;;;;;;8323305;28;20054;-81
2023/04/07 10:25:49;;;;;;;45.83;23.95;;;;;;;;;;8323911;28;20049;-82
2023/04/07 10:30:03;;;;;;;31.15;16.67;;;;;;;;;;8310917;28;20061;-83
2023/04/07 10:34:06;;;;;;;22.65;13.57;;;;;;;;;;8323589;28;20045;-81
2023/04/07 10:38:15;;;;;;;29.25;15.65;;;;;;;;;;8321654;28;20054;-85
2023/04/07 10:42:46;;;;;;;26.13;16.10;;;;;;;;;;8322891;28;20049;-83
2023/04/07 10:47:07;;;;;;;30.93;15.80;;;;;;;;;;8325747;28;20049;-82
2023/04/07 10:51:17;;;;;;;33.22;17.50;;;;;;;;;;8332127;28;20054;-82
2023/04/07 10:55:35;;;;;;;25.37;14.93;;;;;;;;;;8329121;28;20409;-81
2023/04/07 10:59:40;;;;;;;18.30;11.45;;;;;;;;;;8317427;28;20049;-82
2023/04/07 11:04:03;;;;;;;21.40;13.48;;;;;;;;;;8328937;28;20076;-82
2023/04/07 11:08:08;;;;;;;22.88;15.00;;;;;;;;;;8329015;28;20057;-82
2023/04/07 11:12:22;;;;;;;15.60;10.10;;;;;;;;;;8327978;28;20063;-83
2023/04/07 11:16:37;;;;;;;15.88;10.40;;;;;;;;;;8341944;28;20554;-81
2023/04/07 11:20:48;;;;;;;18.55;12.13;;;;;;;;;;8332885;28;20563;-81
2023/04/07 11:24:51;;;;;;;20.47;12.57;;;;;;;;;;8328986;28;20413;-81
2023/04/07 11:28:56;;;;;;;11.80;8.55;;;;;;;;;;8325386;28;20048;-81
2023/04/07 11:32:59;;;;;;;10.30;7.13;;;;;;;;;;8327791;28;20077;-82
2023/04/07 11:37:22;;;;;;;10.45;7.55;;;;;;;;;;8327398;28;20045;-82
2023/04/07 11:41:26;;;;;;;23.38;15.57;;;;;;;;;;8312274;28;20038;-81
2023/04/07 11:45:29;;;;;;;15.52;10.57;;;;;;;;;;8325095;28;20048;-80
2023/04/07 11:49:32;;;;;;;15.10;8.88;;;;;;;;;;8322720;28;20058;-81
2023/04/07 11:53:38;;;;;;;14.30;11.05;;;;;;;;;;8325814;28;20057;-81
2023/04/07 11:57:41;;;;;;;14.93;10.90;;;;;;;;;;8305365;28;20076;-81
2023/04/07 12:01:43;;;;;;;13.07;9.57;;;;;;;;;;8332030;28;20107;-81
2023/04/07 12:05:46;;;;;;;15.73;11.23;;;;;;;;;;8328015;28;20051;-81
2023/04/07 12:09:51;;;;;;;13.23;8.88;;;;;;;;;;8325857;28;20045;-81
2023/04/07 12:13:55;;;;;;;18.20;11.70;;;;;;;;;;8309891;28;20045;-82
2023/04/07 12:17:58;;;;;;;15.18;9.70;;;;;;;;;;8313340;28;20501;-81
2023/04/07 12:22:01;;;;;;;111.63;41.95;;;;;;;;;;8325858;28;20087;-82
2023/04/07 12:26:07;;;;;;;72.57;50.00;;;;;;;;;;8326452;28;20068;-81
2023/04/07 12:30:11;;;;;;;24.33;16.33;;;;;;;;;;8333415;28;20049;-81
2023/04/07 12:34:14;;;;;;;26.08;17.58;;;;;;;;;;8331848;28;20053;-85
2023/04/07 12:38:17;;;;;;;15.88;10.45;;;;;;;;;;8325688;28;20049;-85
2023/04/07 12:42:21;;;;;;;28.30;20.10;;;;;;;;;;8329036;28;20049;-85
2023/04/07 12:46:24;;;;;;;30.10;17.92;;;;;;;;;;8318020;28;20226;-82
2023/04/07 12:50:27;;;;;;;39.97;24.00;;;;;;;;;;8316846;28;20056;-86
2023/04/07 12:54:30;;;;;;;33.13;21.23;;;;;;;;;;8307179;28;20406;-84
2023/04/07 12:58:34;;;;;;;44.95;25.45;;;;;;;;;;8325200;28;20049;-82
2023/04/07 13:02:37;;;;;;;26.13;16.02;;;;;;;;;;8346198;28;20048;-83
2023/04/07 13:06:41;;;;;;;26.67;16.58;;;;;;;;;;8338345;28;20049;-81
2023/04/07 13:10:44;;;;;;;33.03;21.63;;;;;;;;;;8332093;28;20049;-83
2023/04/07 13:14:49;;;;;;;23.95;15.30;;;;;;;;;;8317872;28;20088;-84
2023/04/07 13:18:53;;;;;;;19.20;13.18;;;;;;;;;;8322298;28;20413;-83
2023/04/07 13:22:56;;;;;;;24.35;15.63;;;;;;;;;;8335933;28;20480;-85
2023/04/07 13:27:00;;;;;;;29.50;19.10;;;;;;;;;;8307260;28;20045;-84
2023/04/07 13:31:05;;;;;;;23.85;16.50;;;;;;;;;;8310196;28;20482;-84
2023/04/07 13:35:08;;;;;;;17.58;12.02;;;;;;;;;;8328531;28;20106;-84
2023/04/07 13:39:12;;;;;;;18.95;11.90;;;;;;;;;;8313268;28;20059;-82
2023/04/07 13:43:16;;;;;;;13.65;9.23;;;;;;;;;;8307727;28;20535;-83
2023/04/07 13:47:21;;;;;;;24.63;14.35;;;;;;;;;;8303717;28;20054;-84
2023/04/07 13:51:24;;;;;;;23.08;13.73;;;;;;;;;;8306907;28;20046;-84
2023/04/07 13:55:27;;;;;;;269.50;137.48;;;;;;;;;;8312259;28;20052;-85
2023/04/07 13:59:29;;;;;;;14.80;10.60;;;;;;;;;;8314580;28;20498;-82
2023/04/07 14:03:34;;;;;;;14.65;9.40;;;;;;;;;;8304441;28;20050;-86
2023/04/07 14:07:37;;;;;;;14.73;10.27;;;;;;;;;;8322388;28;20054;-84
2023/04/07 14:11:40;;;;;;;21.73;12.25;;;;;;;;;;8334104;28;20049;-83
2023/04/07 14:15:43;;;;;;;12.88;8.77;;;;;;;;;;8337093;28;20045;-84
2023/04/07 14:19:48;;;;;;;139.63;73.25;;;;;;;;;;8319885;28;20045;-84
2023/04/07 14:23:51;;;;;;;35.63;23.58;;;;;;;;;;8327231;28;20041;-83
2023/04/07 14:27:55;;;;;;;95.75;47.22;;;;;;;;;;8328419;28;20057;-85
2023/04/07 14:31:58;;;;;;;47.40;28.55;;;;;;;;;;8329991;28;20061;-85
2023/04/07 14:36:02;;;;;;;49.13;34.60;;;;;;;;;;8318327;28;20047;-86
2023/04/07 14:40:07;;;;;;;40.60;27.58;;;;;;;;;;8329117;28;20128;-82
2023/04/07 14:44:10;;;;;;;80.63;46.55;;;;;;;;;;8329522;28;20128;-81
2023/04/07 14:48:14;;;;;;;65.28;39.58;;;;;;;;;;8329404;28;20042;-82
2023/04/07 14:52:19;;;;;;;70.00;48.25;;;;;;;;;;8316165;28;20179;-83
2023/04/07 14:56:23;;;;;;;29.45;15.85;;;;;;;;;;8321531;28;20501;-82
2023/04/07 15:00:28;;;;;;;28.52;15.38;;;;;;;;;;8322232;28;20054;-83
2023/04/07 15:04:31;;;;;;;20.27;13.13;;;;;;;;;;8321122;28;20046;-85
2023/04/07 15:08:35;;;;;;;23.92;15.20;;;;;;;;;;8340281;28;20045;-83
2023/04/07 15:12:38;;;;;;;18.13;12.68;;;;;;;;;;8343921;28;20068;-82
2023/04/07 15:16:42;;;;;;;16.45;10.90;;;;;;;;;;8340768;28;20068;-83
2023/04/07 15:20:46;;;;;;;16.73;10.95;;;;;;;;;;8324007;28;20049;-82
2023/04/07 15:24:50;;;;;;;23.08;12.40;;;;;;;;;;8310207;28;20450;-82
2023/04/07 15:28:53;;;;;;;18.92;11.77;;;;;;;;;;8333527;28;20115;-81
2023/04/07 15:32:59;;;;;;;18.13;10.70;;;;;;;;;;8317373;28;20072;-80
2023/04/07 15:37:02;;;;;;;21.05;14.65;;;;;;;;;;8319601;28;20050;-82
2023/04/07 15:41:07;;;;;;;16.42;8.55;;;;;;;;;;8325463;28;20072;-82
2023/04/07 15:45:11;;;;;;;19.95;13.63;;;;;;;;;;8308740;28;20486;-81
2023/04/07 15:49:18;;;;;;;17.27;11.35;;;;;;;;;;8314065;28;20091;-82
2023/04/07 15:53:21;;;;;;;22.30;14.48;;;;;;;;;;8322035;28;20061;-82
2023/04/07 15:57:26;;;;;;;15.15;9.52;;;;;;;;;;8317603;28;20482;-81
2023/04/07 16:01:29;;;;;;;16.30;11.10;;;;;;;;;;8313407;28;20053;-81
2023/04/07 16:05:32;;;;;;;23.95;16.00;;;;;;;;;;8326147;28;20414;-80
2023/04/07 16:09:35;;;;;;;24.58;16.35;;;;;;;;;;8324687;28;20056;-82
2023/04/07 16:13:40;;;;;;;40.42;28.55;;;;;;;;;;8320374;28;20057;-82
2023/04/07 16:17:43;;;;;;;37.30;23.45;;;;;;;;;;8320215;28;20053;-81
2023/04/07 16:21:46;;;;;;;18.45;13.30;;;;;;;;;;8309998;28;20050;-82
2023/04/07 16:25:49;;;;;;;19.10;12.98;;;;;;;;;;8332200;28;20045;-81
2023/04/07 16:29:54;;;;;;;19.73;11.88;;;;;;;;;;8309405;28;20050;-82
2023/04/07 16:33:57;;;;;;;21.27;14.00;;;;;;;;;;8326746;28;20056;-81
2023/04/07 16:38:03;;;;;;;29.30;19.20;;;;;;;;;;8327722;28;20045;-82
2023/04/07 16:42:06;;;;;;;22.27;15.30;;;;;;;;;;8340510;28;20055;-81
2023/04/07 16:46:10;;;;;;;27.98;18.00;;;;;;;;;;8326335;28;20425;-81
2023/04/07 16:50:13;;;;;;;24.20;16.55;;;;;;;;;;8308643;28;20455;-80
2023/04/07 16:54:16;;;;;;;70.13;29.08;;;;;;;;;;8335100;28;20508;-84
2023/04/07 16:58:19;;;;;;;38.17;22.63;;;;;;;;;;8329150;28;20052;-82
2023/04/07 17:02:24;;;;;;;25.20;15.93;;;;;;;;;;8332428;28;20411;-83
2023/04/07 17:06:27;;;;;;;32.33;17.15;;;;;;;;;;8317706;28;20053;-82
2023/04/07 17:10:30;;;;;;;36.15;20.77;;;;;;;;;;8309873;28;20371;-81
2023/04/07 17:14:33;;;;;;;30.40;19.23;;;;;;;;;;8315500;28;20081;-82
2023/04/07 17:18:37;;;;;;;34.15;20.73;;;;;;;;;;8318050;28;20061;-81
2023/04/07 17:22:40;;;;;;;35.88;22.10;;;;;;;;;;8317256;28;20050;-82
2023/04/07 17:26:45;;;;;;;88.93;50.05;;;;;;;;;;8305829;28;20092;-82
2023/04/07 17:30:48;;;;;;;26.38;18.48;;;;;;;;;;8336381;28;20080;-83
2023/04/07 17:34:53;;;;;;;100.10;53.10;;;;;;;;;;8324279;28;20108;-81
2023/04/07 17:38:57;;;;;;;44.03;23.63;;;;;;;;;;8308527;28;20045;-82
2023/04/07 17:43:00;;;;;;;26.25;16.02;;;;;;;;;;8305586;28;20107;-80
2023/04/07 17:47:02;;;;;;;69.00;38.17;;;;;;;;;;8327323;28;20604;-83
2023/04/07 17:51:07;;;;;;;81.93;42.80;;;;;;;;;;8309082;28;20494;-81
2023/04/07 17:55:11;;;;;;;72.13;28.73;;;;;;;;;;8301652;28;20137;-81
2023/04/07 17:59:14;;;;;;;36.45;21.55;;;;;;;;;;8312970;28;20049;-85
2023/04/07 18:03:18;;;;;;;63.05;31.20;;;;;;;;;;8313987;28;20042;-81
2023/04/07 18:07:22;;;;;;;64.65;29.65;;;;;;;;;;8302872;28;20052;-82
2023/04/07 18:11:26;;;;;;;59.63;32.10;;;;;;;;;;8339204;28;20396;-80
2023/04/07 18:15:29;;;;;;;39.67;23.23;;;;;;;;;;8335630;28;20061;-80
2023/04/07 18:19:32;;;;;;;74.80;32.60;;;;;;;;;;8355540;28;20057;-84
2023/04/07 18:23:37;;;;;;;38.55;23.60;;;;;;;;;;8336016;28;20554;-81
2023/04/07 18:27:40;;;;;;;51.55;31.30;;;;;;;;;;8346766;28;20041;-85
2023/04/07 18:31:42;;;;;;;60.55;23.70;;;;;;;;;;8350687;28;20616;-83
2023/04/07 18:35:45;;;;;;;43.92;18.95;;;;;;;;;;8313138;28;20045;-84
2023/04/07 18:39:50;;;;;;;32.00;19.20;;;;;;;;;;8323888;28;20064;-82
2023/04/07 18:43:53;;;;;;;29.23;16.80;;;;;;;;;;8310950;28;20115;-84
2023/04/07 18:47:56;;;;;;;68.95;32.70;;;;;;;;;;8348362;28;20100;-80
2023/04/07 18:51:59;;;;;;;30.75;17.83;;;;;;;;;;8358801;28;20053;-83
2023/04/07 18:56:04;;;;;;;32.38;18.88;;;;;;;;;;8361640;28;20061;-81
2023/04/07 19:00:08;;;;;;;34.80;19.55;;;;;;;;;;8366503;28;20049;-79
2023/04/07 19:04:11;;;;;;;37.28;20.48;;;;;;;;;;8353561;28;20131;-82
2023/04/07 19:08:14;;;;;;;75.18;34.03;;;;;;;;;;8365919;28;20044;-81
2023/04/07 19:12:19;;;;;;;35.40;19.92;;;;;;;;;;8366435;28;20055;-82
2023/04/07 19:16:23;;;;;;;50.25;24.98;;;;;;;;;;8365898;28;20068;-83
2023/04/07 19:20:26;;;;;;;38.90;23.13;;;;;;;;;;8366139;28;20518;-82
2023/04/07 19:24:29;;;;;;;49.75;28.23;;;;;;;;;;8365695;28;20158;-81
2023/04/07 19:28:33;;;;;;;49.03;26.40;;;;;;;;;;8366000;28;20162;-81
2023/04/07 19:32:36;;;;;;;59.75;28.60;;;;;;;;;;8365177;28;20033;-82
2023/04/07 19:36:39;;;;;;;46.10;24.90;;;;;;;;;;8365118;28;20091;-80
2023/04/07 19:40:42;;;;;;;283.67;128.35;;;;;;;;;;8365669;28;20124;-81
2023/04/07 19:44:46;;;;;;;80.18;39.13;;;;;;;;;;8365822;28;20163;-80
2023/04/07 19:48:50;;;;;;;109.93;38.85;;;;;;;;;;8365633;28;20470;-80
2023/04/07 19:52:52;;;;;;;194.18;81.95;;;;;;;;;;8364611;28;20048;-81
2023/04/07 19:56:57;;;;;;;123.55;50.05;;;;;;;;;;8365408;28;20076;-82
2023/04/07 20:01:03;;;;;;;103.60;34.00;;;;;;;;;;8364980;28;20124;-81
2023/04/07 20:05:06;;;;;;;114.68;35.75;;;;;;;;;;8364959;28;20045;-82
2023/04/07 20:09:09;;;;;;;134.30;56.08;;;;;;;;;;8363588;28;20045;-81
2023/04/07 20:13:12;;;;;;;53.25;24.00;;;;;;;;;;8364455;28;20045;-82
2023/04/07 20:17:17;;;;;;;107.10;35.35;;;;;;;;;;8364480;28;20045;-81
2023/04/07 20:21:20;;;;;;;70.25;28.17;;;;;;;;;;8364231;28;20465;-80
2023/04/07 20:25:23;;;;;;;62.92;33.03;;;;;;;;;;8363725;28;20041;-80
2023/04/07 20:29:26;;;;;;;51.05;24.35;;;;;;;;;;8363909;28;20048;-80
2023/04/07 20:33:32;;;;;;;69.80;31.17;;;;;;;;;;8363857;28;20477;-81
2023/04/07 20:37:35;;;;;;;46.15;23.42;;;;;;;;;;8364337;28;20136;-82
2023/04/07 20:41:41;;;;;;;37.95;20.50;;;;;;;;;;8363554;28;20044;-82
2023/04/07 20:45:45;;;;;;;36.80;21.55;;;;;;;;;;8362991;28;20044;-81
2023/04/07 20:49:51;;;;;;;30.50;15.80;;;;;;;;;;8362972;28;20412;-82
2023/04/07 20:53:55;;;;;;;28.42;17.90;;;;;;;;;;8362972;28;20033;-80
2023/04/07 20:57:58;;;;;;;33.05;19.55;;;;;;;;;;8363647;28;20481;-81
2023/04/07 21:02:00;;;;;;;30.55;16.13;;;;;;;;;;8363253;28;20477;-82
2023/04/07 21:06:05;;;;;;;26.77;15.93;;;;;;;;;;8362783;28;20142;-81
2023/04/07 21:10:09;;;;;;;32.08;16.35;;;;;;;;;;8363330;28;20426;-82
2023/04/07 21:14:12;;;;;;;27.00;15.45;;;;;;;;;;8361681;28;20037;-81
2023/04/07 21:18:15;;;;;;;28.08;16.70;;;;;;;;;;8362514;28;20056;-81
2023/04/07 21:22:20;;;;;;;25.38;15.90;;;;;;;;;;8362516;28;20044;-81
2023/04/07 21:26:23;;;;;;;26.67;15.45;;;;;;;;;;8362494;28;20051;-80
2023/04/07 21:30:25;;;;;;;30.42;16.08;;;;;;;;;;8361523;28;20102;-82
2023/04/07 21:34:28;;;;;;;27.95;16.83;;;;;;;;;;8362314;28;20416;-81
2023/04/07 21:38:33;;;;;;;30.70;16.13;;;;;;;;;;8361671;28;20045;-80
2023/04/07 21:42:35;;;;;;;24.85;15.00;;;;;;;;;;8362146;28;20063;-83
2023/04/07 21:46:39;;;;;;;27.48;16.35;;;;;;;;;;8361878;28;20401;-80
2023/04/07 21:50:42;;;;;;;30.13;16.98;;;;;;;;;;8361945;28;20382;-81
2023/04/07 21:54:46;;;;;;;30.58;16.70;;;;;;;;;;8361645;28;20045;-81
2023/04/07 21:58:49;;;;;;;34.00;17.58;;;;;;;;;;8361024;28;20041;-83
2023/04/07 22:02:53;;;;;;;31.30;18.60;;;;;;;;;;8361644;28;20044;-80
2023/04/07 22:06:56;;;;;;;34.65;17.70;;;;;;;;;;8360540;28;20089;-81
2023/04/07 22:11:01;;;;;;;35.85;20.02;;;;;;;;;;8362160;28;20153;-80
2023/04/07 22:15:05;;;;;;;31.73;18.77;;;;;;;;;;8361209;28;20068;-82
2023/04/07 22:19:07;;;;;;;73.10;36.00;;;;;;;;;;8361132;28;20057;-79
2023/04/07 22:23:10;;;;;;;36.25;18.83;;;;;;;;;;8360714;28;20517;-83
2023/04/07 22:27:15;;;;;;;34.35;19.38;;;;;;;;;;8361560;28;20049;-80
2023/04/07 22:31:18;;;;;;;35.80;19.73;;;;;;;;;;8363014;28;20396;-81
2023/04/07 22:35:20;;;;;;;37.55;19.65;;;;;;;;;;8367634;28;20076;-81
2023/04/07 22:39:23;;;;;;;33.05;17.85;;;;;;;;;;8367280;28;20037;-81
2023/04/07 22:43:28;;;;;;;46.30;27.67;;;;;;;;;;8367334;28;20044;-81
2023/04/07 22:47:31;;;;;;;30.85;16.48;;;;;;;;;;8367038;28;20098;-82
2023/04/07 22:51:34;;;;;;;31.23;17.05;;;;;;;;;;8366807;28;20495;-82
2023/04/07 22:55:37;;;;;;;32.35;18.58;;;;;;;;;;8366774;28;20048;-80
2023/04/07 22:59:41;;;;;;;32.25;17.90;;;;;;;;;;8366438;28;20056;-81
2023/04/07 23:03:44;;;;;;;35.13;18.42;;;;;;;;;;8366924;28;20409;-81
2023/04/07 23:07:47;;;;;;;33.30;19.48;;;;;;;;;;8354395;28;20041;-81
2023/04/07 23:11:49;;;;;;;35.10;19.15;;;;;;;;;;8366498;28;20052;-80
2023/04/07 23:15:54;;;;;;;30.98;16.35;;;;;;;;;;8366441;28;20052;-83
2023/04/07 23:19:57;;;;;;;34.97;18.20;;;;;;;;;;8366602;28;20045;-80
2023/04/07 23:23:59;;;;;;;31.45;17.33;;;;;;;;;;8365802;28;20072;-80
2023/04/07 23:28:02;;;;;;;35.75;18.80;;;;;;;;;;8365625;28;20045;-80
2023/04/07 23:32:07;;;;;;;31.42;18.88;;;;;;;;;;8365416;28;20045;-81
2023/04/07 23:36:09;;;;;;;30.30;17.88;;;;;;;;;;8365997;28;20053;-80
2023/04/07 23:40:13;;;;;;;40.22;23.77;;;;;;;;;;8365177;28;20052;-82